Time;durP1;ratioP1;P1;durP2;ratioP2;P2;SDS_P1;SDS_P2;PMS_P1;PMS_P2;Temp;Humidity;BMP_temperature;BMP_pressure;BME280_temperature;BME280_humidity;BME280_pressure;Samples;Min_cycle;Max_cycle;Signal;HPM_P1;HPM_P2
2022/11/30 00:01:52;;;;;;;28.83;12.43;;;;;;;6.56;100.00;102151.19;5073374;28;20464;-77
2022/11/30 00:04:18;;;;;;;28.73;12.95;;;;;;;6.55;100.00;102150.34;5071746;28;20032;-77
2022/11/30 00:06:43;;;;;;;29.65;12.73;;;;;;;6.56;100.00;102156.38;5070078;28;20027;-77
2022/11/30 00:09:08;;;;;;;30.80;13.05;;;;;;;6.55;100.00;102155.50;5072050;28;20098;-77
2022/11/30 00:11:33;;;;;;;28.45;12.68;;;;;;;6.55;100.00;102154.63;5070099;28;20464;-77
2022/11/30 00:13:59;;;;;;;28.00;11.88;;;;;;;6.55;100.00;102160.69;5086564;28;20093;-77
2022/11/30 00:16:26;;;;;;;26.15;12.60;;;;;;;6.55;100.00;102159.81;5073564;28;20031;-77
2022/11/30 00:18:51;;;;;;;25.63;11.65;;;;;;;6.57;100.00;102160.69;5070497;28;20476;-77
2022/11/30 00:21:17;;;;;;;25.17;11.85;;;;;;;6.57;100.00;102163.28;5074481;28;20040;-77
2022/11/30 00:23:44;;;;;;;23.05;10.90;;;;;;;6.57;100.00;102156.41;5077121;28;20056;-77
2022/11/30 00:26:11;;;;;;;23.20;10.90;;;;;;;6.59;100.00;102159.00;5072792;28;20028;-77
2022/11/30 00:28:38;;;;;;;22.00;9.98;;;;;;;6.59;100.00;102161.59;5077985;28;20036;-77
2022/11/30 00:31:06;;;;;;;22.85;10.57;;;;;;;6.58;100.00;102159.84;5095074;28;20038;-77
2022/11/30 00:33:33;;;;;;;18.52;9.70;;;;;;;6.57;100.00;102147.75;5095667;28;20020;-77
2022/11/30 00:36:00;;;;;;;18.05;9.50;;;;;;;6.60;100.00;102155.56;5074098;28;20044;-77
2022/11/30 00:38:26;;;;;;;18.05;9.30;;;;;;;6.60;100.00;102147.81;5070796;28;20029;-77
2022/11/30 00:40:52;;;;;;;19.55;9.18;;;;;;;6.59;100.00;102146.91;5076601;28;20466;-77
2022/11/30 00:43:17;;;;;;;18.60;9.85;;;;;;;6.60;100.00;102158.16;5053888;28;20033;-77
2022/11/30 00:45:43;;;;;;;18.33;9.05;;;;;;;6.60;100.00;102155.56;5055206;28;20029;-77
2022/11/30 00:48:08;;;;;;;16.70;9.07;;;;;;;6.60;100.00;102152.97;5055016;28;20039;-77
2022/11/30 00:50:33;;;;;;;17.75;9.10;;;;;;;6.60;100.00;102158.16;5067271;28;20055;-77
2022/11/30 00:52:58;;;;;;;18.13;9.10;;;;;;;6.59;100.00;102159.00;5073832;28;20062;-77
2022/11/30 00:55:24;;;;;;;18.27;9.57;;;;;;;6.57;100.00;102158.09;5075084;28;20032;-77
2022/11/30 00:57:50;;;;;;;16.58;8.98;;;;;;;6.59;100.00;102156.41;5074966;28;20383;-77
2022/11/30 01:00:15;;;;;;;18.05;8.60;;;;;;;6.57;100.00;102145.19;5085152;28;20371;-77
2022/11/30 01:02:42;;;;;;;17.50;9.23;;;;;;;6.57;100.00;102158.09;5060968;28;20036;-77
2022/11/30 01:05:07;;;;;;;17.73;9.77;;;;;;;6.56;100.00;102154.66;5054876;28;20039;-77
2022/11/30 01:07:32;;;;;;;18.77;9.40;;;;;;;6.57;100.00;102159.00;5058463;28;20024;-77
2022/11/30 01:09:57;;;;;;;18.58;8.98;;;;;;;6.56;100.00;102162.41;5078297;28;20063;-77
2022/11/30 01:12:23;;;;;;;16.80;8.65;;;;;;;6.56;100.00;102167.59;5072214;28;20479;-77
2022/11/30 01:14:48;;;;;;;15.68;8.75;;;;;;;6.53;100.00;102165.81;5073416;28;20034;-77
2022/11/30 01:17:13;;;;;;;15.35;8.73;;;;;;;6.52;100.00;102166.66;5074114;28;20032;-77
2022/11/30 01:19:38;;;;;;;17.30;9.10;;;;;;;6.53;100.00;102172.72;5072192;28;20495;-77
2022/11/30 01:22:04;;;;;;;16.30;8.75;;;;;;;6.53;100.00;102173.56;5071651;28;20036;-77
2022/11/30 01:24:29;;;;;;;14.70;8.32;;;;;;;6.53;100.00;102170.13;5076610;28;20027;-77
2022/11/30 01:26:54;;;;;;;17.77;9.25;;;;;;;6.52;100.00;102170.97;5061918;28;20055;-77
2022/11/30 01:29:19;;;;;;;14.25;8.45;;;;;;;6.53;100.00;102172.72;5069521;28;20025;-77
2022/11/30 01:31:45;;;;;;;15.68;9.38;;;;;;;6.54;100.00;102169.28;5073273;28;20028;-77
2022/11/30 01:34:10;;;;;;;15.40;8.77;;;;;;;6.54;100.00;102171.88;5091063;28;20078;-77
2022/11/30 01:36:37;;;;;;;16.65;9.15;;;;;;;6.55;100.00;102175.31;5073644;28;20028;-77
2022/11/30 01:39:07;;;;;;;14.65;8.85;;;;;;;6.53;100.00;102178.75;5054310;28;20055;-77
2022/11/30 01:41:33;;;;;;;17.25;8.27;;;;;;;6.53;100.00;102170.13;5054082;28;20468;-77
2022/11/30 01:44:04;;;;;;;15.25;8.52;;;;;;;6.53;100.00;102183.06;5074900;28;20047;-77
2022/11/30 01:46:43;;;;;;;17.13;8.90;;;;;;;6.53;100.00;102173.56;5074751;28;20395;-77
2022/11/30 01:49:09;;;;;;;17.80;8.93;;;;;;;6.53;100.00;102181.31;5061668;28;20038;-77
2022/11/30 01:51:52;;;;;;;15.38;8.55;;;;;;;6.55;100.00;102177.91;5074371;28;20267;-77
2022/11/30 01:54:25;;;;;;;15.52;8.63;;;;;;;6.55;100.00;102189.13;5094175;28;20055;-77
2022/11/30 01:56:57;;;;;;;14.07;8.45;;;;;;;6.55;100.00;102185.66;5094102;28;20023;-77
2022/11/30 01:59:24;;;;;;;15.82;8.45;;;;;;;6.53;100.00;102188.22;5075546;28;20028;-77
2022/11/30 02:01:51;;;;;;;14.68;8.52;;;;;;;6.56;100.00;102197.75;5069458;28;20055;-77
2022/11/30 02:04:24;;;;;;;16.83;9.45;;;;;;;6.56;100.00;102197.75;5066174;28;20025;-77
2022/11/30 02:06:49;;;;;;;15.05;8.73;;;;;;;6.56;99.99;102200.31;5073641;28;20028;-77
2022/11/30 02:09:18;;;;;;;13.98;8.63;;;;;;;6.56;100.00;102197.75;5090621;28;20447;-77
2022/11/30 02:11:43;;;;;;;17.77;8.93;;;;;;;6.56;100.00;102196.03;5063738;28;20100;-78
2022/11/30 02:14:16;;;;;;;16.23;8.70;;;;;;;6.57;100.00;102196.88;5086412;28;20448;-77
2022/11/30 02:16:49;;;;;;;16.23;8.52;;;;;;;6.57;99.99;102199.47;5078844;28;20107;-77
2022/11/30 02:19:42;;;;;;;15.55;8.93;;;;;;;6.57;100.00;102194.31;5068209;28;20049;-77
2022/11/30 02:22:28;;;;;;;14.80;8.60;;;;;;;6.56;99.84;102196.03;5052084;28;20090;-77
2022/11/30 02:24:59;;;;;;;15.50;9.23;;;;;;;6.55;99.63;102201.16;5054639;28;20064;-77
2022/11/30 02:28:02;;;;;;;15.10;8.80;;;;;;;6.54;99.76;102192.56;5072728;28;20364;-77
2022/11/30 02:30:30;;;;;;;14.65;8.55;;;;;;;6.51;99.68;102201.13;5068393;28;20030;-77
2022/11/30 02:33:04;;;;;;;15.23;9.15;;;;;;;6.49;99.67;102197.66;5081043;28;20017;-77
2022/11/30 02:35:33;;;;;;;14.77;8.23;;;;;;;6.49;99.42;102197.66;5070133;28;20028;-77
2022/11/30 02:38:00;;;;;;;16.13;9.23;;;;;;;6.46;99.62;102197.63;5082975;28;20040;-77
2022/11/30 02:40:25;;;;;;;15.18;8.90;;;;;;;6.48;99.48;102197.63;5072552;28;20375;-77
2022/11/30 02:42:53;;;;;;;15.18;8.93;;;;;;;6.47;99.62;102204.53;5058289;28;20116;-77
2022/11/30 02:45:33;;;;;;;16.60;9.45;;;;;;;6.47;99.70;102199.38;5068654;28;20495;-77
2022/11/30 02:48:07;;;;;;;18.10;9.68;;;;;;;6.47;99.60;102204.53;5088660;28;20036;-77
2022/11/30 02:50:39;;;;;;;16.10;9.38;;;;;;;6.44;99.23;102194.16;5093121;28;20023;-77
2022/11/30 02:53:08;;;;;;;15.25;8.93;;;;;;;6.45;99.18;102203.66;5088280;28;20048;-77
2022/11/30 02:55:33;;;;;;;15.98;9.38;;;;;;;6.43;99.04;102197.59;5068464;28;20103;-77
2022/11/30 02:57:58;;;;;;;16.35;9.20;;;;;;;6.43;99.29;102200.16;5072368;28;20071;-77
2022/11/30 03:00:23;;;;;;;16.45;9.43;;;;;;;6.44;99.49;102199.31;5072533;28;20024;-77
2022/11/30 03:02:49;;;;;;;15.05;9.07;;;;;;;6.44;99.46;102196.75;5072660;28;20463;-77
2022/11/30 03:05:14;;;;;;;15.73;9.40;;;;;;;6.45;99.31;102201.06;5067391;28;20029;-77
2022/11/30 03:07:39;;;;;;;15.85;8.63;;;;;;;6.46;99.27;102199.31;5071122;28;20046;-77
2022/11/30 03:10:05;;;;;;;16.58;8.90;;;;;;;6.45;99.08;102201.06;5072096;28;20434;-77
2022/11/30 03:12:31;;;;;;;15.05;9.00;;;;;;;6.47;98.88;102201.94;5072526;28;20024;-77
2022/11/30 03:14:56;;;;;;;14.93;9.18;;;;;;;6.47;98.99;102196.78;5072268;28;20082;-77
2022/11/30 03:17:21;;;;;;;15.60;8.82;;;;;;;6.49;99.12;102197.66;5072741;28;20025;-77
2022/11/30 03:19:47;;;;;;;14.25;8.80;;;;;;;6.49;98.90;102197.66;5069716;28;20495;-77
2022/11/30 03:22:12;;;;;;;14.77;8.80;;;;;;;6.49;98.79;102200.22;5072083;28;20032;-77
2022/11/30 03:24:37;;;;;;;13.80;8.32;;;;;;;6.47;98.94;102207.13;5072401;28;20033;-77
2022/11/30 03:27:02;;;;;;;14.88;8.75;;;;;;;6.46;98.81;102202.81;5071925;28;20036;-77
2022/11/30 03:29:28;;;;;;;15.02;8.82;;;;;;;6.43;98.87;102207.94;5072472;28;20372;-77
2022/11/30 03:31:53;;;;;;;16.42;9.25;;;;;;;6.40;98.33;102207.88;5071949;28;20033;-77
2022/11/30 03:34:18;;;;;;;15.55;9.02;;;;;;;6.39;98.53;102200.97;5072336;28;20320;-77
2022/11/30 03:36:44;;;;;;;15.52;8.75;;;;;;;6.40;98.55;102205.28;5062616;28;20100;-77
2022/11/30 03:39:09;;;;;;;16.30;8.60;;;;;;;6.38;98.45;102201.81;5079155;28;20036;-77
2022/11/30 03:41:34;;;;;;;16.90;9.50;;;;;;;6.35;98.07;102205.22;5076399;28;20029;-77
2022/11/30 03:44:00;;;;;;;15.00;9.18;;;;;;;6.35;98.21;102202.66;5072083;28;20037;-77
2022/11/30 03:46:26;;;;;;;14.40;8.77;;;;;;;6.35;97.94;102214.69;5072294;28;20024;-77
2022/11/30 03:48:51;;;;;;;16.70;9.50;;;;;;;6.34;97.91;102212.94;5071893;28;20028;-77
2022/11/30 03:51:17;;;;;;;16.20;9.65;;;;;;;6.34;98.19;102210.38;5066693;28;20099;-77
2022/11/30 03:53:42;;;;;;;15.52;9.15;;;;;;;6.35;98.25;102217.28;5072162;28;20020;-77
2022/11/30 03:56:10;;;;;;;15.35;8.48;;;;;;;6.34;98.20;102212.94;5074427;28;20541;-77
2022/11/30 03:58:36;;;;;;;15.38;8.98;;;;;;;6.34;98.67;102212.94;5074119;28;20035;-77
2022/11/30 04:01:10;;;;;;;14.55;8.57;;;;;;;6.33;98.50;102216.38;5075588;28;20028;-77
2022/11/30 04:03:36;;;;;;;15.50;9.30;;;;;;;6.33;98.33;102216.38;5075769;28;20059;-77
2022/11/30 04:06:03;;;;;;;14.23;8.77;;;;;;;6.31;98.21;102223.28;5072845;28;20073;-77
2022/11/30 04:08:29;;;;;;;13.98;8.60;;;;;;;6.28;98.24;102223.22;5079635;28;20042;-77
2022/11/30 04:10:56;;;;;;;15.50;9.10;;;;;;;6.27;98.14;102218.91;5075369;28;20024;-77
2022/11/30 04:13:22;;;;;;;13.13;8.45;;;;;;;6.25;98.44;102218.00;5082586;28;20031;-77
2022/11/30 04:15:49;;;;;;;13.40;8.00;;;;;;;6.22;98.38;102219.69;5073190;28;20029;-77
2022/11/30 04:18:16;;;;;;;14.40;7.38;;;;;;;6.22;98.68;102216.25;5073208;28;20126;-77
2022/11/30 04:20:42;;;;;;;14.43;8.43;;;;;;;6.20;98.59;102221.38;5078525;28;20036;-77
2022/11/30 04:23:11;;;;;;;15.38;8.63;;;;;;;6.21;98.50;102217.94;5079622;28;20085;-77
2022/11/30 04:25:37;;;;;;;12.88;7.75;;;;;;;6.20;98.59;102216.22;5075809;28;20035;-77
2022/11/30 04:28:03;;;;;;;15.15;8.32;;;;;;;6.20;98.55;102217.94;5088124;28;20078;-77
2022/11/30 04:30:28;;;;;;;13.48;8.02;;;;;;;6.18;98.77;102219.63;5080806;28;20044;-77
2022/11/30 04:32:53;;;;;;;13.10;7.63;;;;;;;6.18;98.80;102217.91;5072649;28;20078;-77
2022/11/30 04:35:19;;;;;;;14.13;8.07;;;;;;;6.16;98.86;102222.16;5077564;28;20112;-77
2022/11/30 04:37:44;;;;;;;13.52;8.18;;;;;;;6.15;98.79;102212.69;5073898;28;20396;-77
2022/11/30 04:40:10;;;;;;;12.75;7.70;;;;;;;6.15;98.48;102214.41;5077635;28;20028;-77
2022/11/30 04:42:35;;;;;;;11.57;7.43;;;;;;;6.13;98.41;102211.81;5080542;28;20052;-77
2022/11/30 04:45:00;;;;;;;13.05;7.93;;;;;;;6.11;98.54;102205.75;5074268;28;20041;-77
2022/11/30 04:47:25;;;;;;;12.88;7.82;;;;;;;6.10;98.22;102214.34;5073253;28;20024;-77
2022/11/30 04:49:51;;;;;;;13.60;8.18;;;;;;;6.10;98.40;102213.47;5076177;28;20056;-77
2022/11/30 04:52:16;;;;;;;13.60;8.18;;;;;;;6.08;98.60;102216.03;5072876;28;20040;-77
2022/11/30 04:54:41;;;;;;;14.55;8.82;;;;;;;6.08;98.70;102216.03;5076612;28;20064;-77
2022/11/30 04:57:06;;;;;;;12.40;7.90;;;;;;;6.07;98.39;102212.56;5073610;28;20586;-77
2022/11/30 04:59:32;;;;;;;15.05;7.88;;;;;;;6.06;98.66;102217.72;5082777;28;20039;-77
2022/11/30 05:01:57;;;;;;;13.68;7.55;;;;;;;6.05;98.42;102221.16;5073953;28;20036;-77
2022/11/30 05:04:22;;;;;;;14.60;8.15;;;;;;;6.04;98.60;102227.16;5073852;28;20480;-77
2022/11/30 05:06:48;;;;;;;15.13;7.88;;;;;;;6.04;98.89;102222.00;5073003;28;20560;-77
2022/11/30 05:09:13;;;;;;;14.27;7.68;;;;;;;6.02;98.51;102221.97;5089934;28;20039;-77
2022/11/30 05:11:38;;;;;;;16.35;8.50;;;;;;;5.98;98.42;102222.75;5087288;28;20035;-77
2022/11/30 05:14:04;;;;;;;14.02;8.15;;;;;;;5.97;98.14;102227.91;5086700;28;20047;-77
2022/11/30 05:16:29;;;;;;;11.27;7.35;;;;;;;5.96;98.51;102226.16;5072044;28;20032;-77
2022/11/30 05:18:55;;;;;;;11.38;7.18;;;;;;;5.97;98.73;102227.91;5077296;28;20123;-77
2022/11/30 05:21:20;;;;;;;14.93;7.78;;;;;;;5.98;98.40;102224.47;5079146;28;20487;-77
2022/11/30 05:23:47;;;;;;;13.02;8.18;;;;;;;5.98;98.75;102229.63;5074979;28;20415;-77
2022/11/30 05:26:13;;;;;;;12.27;7.55;;;;;;;5.98;98.97;102224.47;5073158;28;20032;-77
2022/11/30 05:28:38;;;;;;;12.65;7.85;;;;;;;5.97;98.67;102228.75;5082955;28;20040;-77
2022/11/30 05:31:04;;;;;;;12.00;7.43;;;;;;;5.98;98.80;102234.81;5081276;28;20035;-77
2022/11/30 05:33:29;;;;;;;13.82;7.85;;;;;;;5.97;98.89;102233.91;5079161;28;20030;-77
2022/11/30 05:35:54;;;;;;;13.85;8.20;;;;;;;5.98;98.59;102235.66;5071326;28;20159;-77
2022/11/30 05:38:20;;;;;;;11.18;7.25;;;;;;;5.99;98.60;102236.50;5084964;28;20044;-77
2022/11/30 05:40:45;;;;;;;13.90;8.10;;;;;;;5.99;98.96;102239.09;5070904;28;20085;-77
2022/11/30 05:43:11;;;;;;;12.63;7.70;;;;;;;5.98;98.82;102242.56;5080203;28;20063;-77
2022/11/30 05:45:37;;;;;;;13.45;7.78;;;;;;;5.93;98.75;102243.34;5077248;28;20140;-76
2022/11/30 05:48:02;;;;;;;14.60;7.90;;;;;;;5.91;98.60;102241.56;5071983;28;20383;-77
2022/11/30 05:50:27;;;;;;;12.05;7.75;;;;;;;5.90;98.29;102245.88;5072159;28;20055;-76
2022/11/30 05:52:57;;;;;;;14.65;7.40;;;;;;;5.88;98.24;102250.13;5071469;28;20020;-76
2022/11/30 05:55:23;;;;;;;13.38;8.18;;;;;;;5.87;98.55;102248.41;5069687;28;20374;-77
2022/11/30 05:57:48;;;;;;;13.82;7.82;;;;;;;5.86;98.71;102251.81;5072001;28;20103;-77
2022/11/30 06:00:14;;;;;;;14.73;8.25;;;;;;;5.84;98.37;102252.66;5072078;28;20055;-77
2022/11/30 06:02:39;;;;;;;12.60;7.80;;;;;;;5.81;98.56;102250.00;5065221;28;20127;-77
2022/11/30 06:05:05;;;;;;;11.73;7.57;;;;;;;5.81;98.55;102262.91;5071526;28;20039;-77
2022/11/30 06:07:30;;;;;;;11.60;7.40;;;;;;;5.80;98.52;102254.31;5070445;28;20032;-77
2022/11/30 06:09:56;;;;;;;12.82;7.78;;;;;;;5.81;98.42;102250.00;5072164;28;20025;-77
2022/11/30 06:12:21;;;;;;;12.43;7.90;;;;;;;5.77;97.96;102254.25;5072417;28;20161;-77
2022/11/30 06:14:46;;;;;;;12.52;7.93;;;;;;;5.73;98.03;102255.03;5066685;28;20047;-77
2022/11/30 06:17:12;;;;;;;13.82;8.00;;;;;;;5.71;98.21;102251.56;5072285;28;20033;-77
2022/11/30 06:19:37;;;;;;;12.13;7.63;;;;;;;5.73;98.61;102257.63;5071494;28;20407;-77
2022/11/30 06:22:02;;;;;;;14.68;7.88;;;;;;;5.73;98.25;102257.63;5058331;28;20097;-78
2022/11/30 06:24:27;;;;;;;13.38;7.68;;;;;;;5.73;98.15;102260.22;5052065;28;20498;-77
2022/11/30 06:26:53;;;;;;;13.68;7.95;;;;;;;5.76;98.27;102262.84;5070878;28;20201;-77
2022/11/30 06:29:19;;;;;;;14.57;8.52;;;;;;;5.77;98.62;102264.59;5072652;28;20036;-77
2022/11/30 06:31:44;;;;;;;13.45;7.90;;;;;;;5.76;98.09;102268.00;5072263;28;20085;-77
2022/11/30 06:34:09;;;;;;;12.75;7.72;;;;;;;5.73;98.32;102265.38;5072632;28;20028;-77
2022/11/30 06:36:35;;;;;;;13.00;7.70;;;;;;;5.71;98.13;102267.06;5070862;28;20028;-77
2022/11/30 06:39:00;;;;;;;11.40;7.20;;;;;;;5.70;97.73;102270.47;5068519;28;20036;-77
2022/11/30 06:41:25;;;;;;;11.82;7.53;;;;;;;5.67;97.27;102265.25;5071348;28;20028;-77
2022/11/30 06:43:51;;;;;;;12.63;7.43;;;;;;;5.64;97.75;102271.25;5071469;28;20063;-77
2022/11/30 06:46:17;;;;;;;12.32;7.15;;;;;;;5.61;97.73;102272.06;5069976;28;20052;-77
2022/11/30 06:48:42;;;;;;;12.38;7.10;;;;;;;5.59;97.53;102267.69;5071218;28;20062;-77
2022/11/30 06:51:09;;;;;;;11.98;7.45;;;;;;;5.52;97.36;102271.88;5071920;28;20437;-77
2022/11/30 06:53:35;;;;;;;14.23;7.28;;;;;;;5.49;97.16;102282.16;5072086;28;20482;-77
2022/11/30 06:56:07;;;;;;;13.18;7.72;;;;;;;5.44;97.02;102276.91;5070640;28;20028;-77
2022/11/30 06:58:32;;;;;;;12.02;7.35;;;;;;;5.40;96.96;102284.56;5069799;28;20139;-77
2022/11/30 07:00:58;;;;;;;12.55;7.55;;;;;;;5.37;96.94;102279.34;5067925;28;20059;-77
2022/11/30 07:03:24;;;;;;;14.93;8.27;;;;;;;5.33;97.08;102281.00;5072551;28;20040;-77
2022/11/30 07:05:49;;;;;;;13.98;8.20;;;;;;;5.31;97.74;102285.25;5070441;28;20029;-77
2022/11/30 07:08:15;;;;;;;13.73;8.52;;;;;;;5.29;97.79;102285.25;5070973;28;20073;-77
2022/11/30 07:10:42;;;;;;;13.73;8.00;;;;;;;5.28;97.10;102292.94;5072337;28;20112;-77
2022/11/30 07:13:13;;;;;;;14.13;7.80;;;;;;;5.20;97.32;102292.78;5070634;28;20029;-77
2022/11/30 07:15:41;;;;;;;14.52;7.93;;;;;;;5.15;97.10;102291.81;5065670;28;20033;-77
2022/11/30 07:18:07;;;;;;;12.27;7.75;;;;;;;5.11;96.96;102288.31;5071298;28;20052;-77
2022/11/30 07:20:33;;;;;;;12.30;7.45;;;;;;;5.08;97.16;102297.72;5070689;28;20391;-77
2022/11/30 07:26:05;;;;;;;12.95;7.45;;;;;;;5.06;97.08;102301.97;5072575;28;20037;-77
2022/11/30 07:28:27;;;;;;;11.88;7.32;;;;;;;5.12;97.94;102302.94;5069893;28;20059;-77
2022/11/30 07:30:53;;;;;;;12.20;7.35;;;;;;;5.15;98.06;102312.44;5074604;28;20464;-77
2022/11/30 07:33:18;;;;;;;10.57;6.65;;;;;;;5.16;98.09;102319.34;5076693;28;20090;-77
2022/11/30 07:35:43;;;;;;;9.07;5.70;;;;;;;5.15;97.75;102313.34;5076519;28;20109;-77
2022/11/30 07:38:08;;;;;;;12.15;6.88;;;;;;;5.16;97.88;102319.34;5066682;28;20044;-77
2022/11/30 07:40:34;;;;;;;12.77;7.20;;;;;;;5.17;98.31;102318.50;5064504;28;20036;-77
2022/11/30 07:42:59;;;;;;;10.93;6.80;;;;;;;5.16;98.50;102324.50;5076260;28;20420;-77
2022/11/30 07:45:24;;;;;;;12.82;7.47;;;;;;;5.16;98.40;102324.50;5076345;28;20025;-77
2022/11/30 07:47:49;;;;;;;12.70;7.53;;;;;;;5.15;98.34;102323.66;5076455;28;20029;-77
2022/11/30 07:50:15;;;;;;;11.30;7.18;;;;;;;5.19;98.32;102329.75;5076224;28;20491;-77
2022/11/30 07:52:40;;;;;;;12.73;7.60;;;;;;;5.17;98.45;102323.69;5074939;28;20028;-77
2022/11/30 07:55:06;;;;;;;14.77;8.10;;;;;;;5.17;98.52;102323.69;5076240;28;20035;-77
2022/11/30 07:57:31;;;;;;;14.85;8.60;;;;;;;5.19;98.51;102323.72;5076105;28;20025;-77
2022/11/30 07:59:57;;;;;;;13.05;8.10;;;;;;;5.20;98.37;102328.06;5075904;28;20028;-77
2022/11/30 08:02:22;;;;;;;16.10;8.95;;;;;;;5.20;98.52;102328.91;5076112;28;20039;-77
2022/11/30 08:04:47;;;;;;;15.63;9.57;;;;;;;5.18;98.52;102335.75;5076065;28;20387;-77
2022/11/30 08:07:13;;;;;;;13.20;7.80;;;;;;;5.20;98.47;102336.66;5067060;28;20111;-77
2022/11/30 08:09:38;;;;;;;13.63;8.27;;;;;;;5.21;98.51;102340.97;5055928;28;20222;-77
2022/11/30 08:12:04;;;;;;;14.75;8.38;;;;;;;5.23;98.72;102341.88;5055881;28;20023;-77
2022/11/30 08:14:29;;;;;;;15.23;8.75;;;;;;;5.28;98.43;102341.97;5055827;28;20032;-77
2022/11/30 08:16:54;;;;;;;15.70;9.05;;;;;;;5.31;98.55;102342.88;5064434;28;20025;-77
2022/11/30 08:19:20;;;;;;;16.10;8.75;;;;;;;5.36;98.65;102343.00;5073495;28;20067;-77
2022/11/30 08:21:45;;;;;;;16.75;9.05;;;;;;;5.40;99.31;102354.25;5074235;28;20029;-77
2022/11/30 08:24:12;;;;;;;14.48;8.60;;;;;;;5.46;98.80;102351.81;5067128;28;20343;-77
2022/11/30 08:26:37;;;;;;;14.38;8.75;;;;;;;5.48;98.85;102352.69;5075537;28;20066;-77
2022/11/30 08:29:03;;;;;;;16.23;8.68;;;;;;;5.52;98.78;102354.50;5079197;28;20028;-77
2022/11/30 08:31:35;;;;;;;14.38;8.30;;;;;;;5.54;99.10;102350.22;5064653;28;20415;-77
2022/11/30 08:34:09;;;;;;;14.65;8.40;;;;;;;5.57;99.29;102352.88;5082924;28;20101;-77
2022/11/30 08:36:34;;;;;;;13.23;8.57;;;;;;;5.60;98.84;102359.81;5081276;28;21544;-77
2022/11/30 08:39:03;;;;;;;15.13;8.75;;;;;;;5.62;98.63;102365.88;5075204;28;20067;-77
2022/11/30 08:41:28;;;;;;;16.85;8.57;;;;;;;5.65;98.88;102375.38;5070184;28;20047;-77
2022/11/30 08:43:53;;;;;;;15.02;9.00;;;;;;;5.64;98.96;102374.53;5065969;28;20522;-77
2022/11/30 08:46:21;;;;;;;17.05;9.02;;;;;;;5.66;99.10;102383.16;5078666;28;20032;-77
2022/11/30 08:48:46;;;;;;;17.05;9.88;;;;;;;5.67;98.98;102379.75;5069815;28;20025;-77
2022/11/30 08:51:16;;;;;;;18.45;10.43;;;;;;;5.67;98.82;102376.28;5072391;28;20081;-77
2022/11/30 08:53:41;;;;;;;17.80;9.90;;;;;;;5.67;98.96;102381.44;5072829;28;20063;-77
2022/11/30 08:56:10;;;;;;;16.10;9.48;;;;;;;5.65;98.97;102375.38;5069008;28;20463;-77
2022/11/30 08:58:37;;;;;;;19.17;9.93;;;;;;;5.64;98.66;102384.00;5067087;28;20029;-77
2022/11/30 09:01:15;;;;;;;16.27;9.95;;;;;;;5.65;99.09;102385.69;5062492;28;20395;-77
2022/11/30 09:03:41;;;;;;;15.70;9.43;;;;;;;5.62;98.84;102379.66;5068880;28;20033;-77
2022/11/30 09:06:09;;;;;;;16.88;9.98;;;;;;;5.61;98.91;102379.63;5074244;28;20060;-77
2022/11/30 09:08:35;;;;;;;18.35;10.43;;;;;;;5.63;98.77;102385.69;5069134;28;20060;-77
2022/11/30 09:11:07;;;;;;;17.75;10.25;;;;;;;5.67;99.18;102387.50;5072505;28;20102;-77
2022/11/30 09:13:33;;;;;;;17.30;9.85;;;;;;;5.73;99.31;102386.75;5075103;28;20053;-77
2022/11/30 09:15:58;;;;;;;18.42;10.70;;;;;;;5.82;99.78;102389.47;5068277;28;20436;-77
2022/11/30 09:18:23;;;;;;;19.17;11.27;;;;;;;5.88;99.54;102383.59;5074410;28;20555;-77
2022/11/30 09:20:48;;;;;;;18.92;11.32;;;;;;;5.96;99.88;102391.47;5075245;28;20040;-77
2022/11/30 09:23:14;;;;;;;20.98;11.30;;;;;;;6.02;100.00;102397.66;5070091;28;20034;-77
2022/11/30 09:25:39;;;;;;;21.30;11.43;;;;;;;6.08;99.86;102391.72;5073890;28;20028;-77
2022/11/30 09:28:04;;;;;;;20.30;11.82;;;;;;;6.15;100.00;102390.97;5072593;28;20024;-77
2022/11/30 09:30:30;;;;;;;20.65;11.80;;;;;;;6.20;100.00;102391.94;5060471;28;20037;-77
2022/11/30 09:32:55;;;;;;;22.52;12.27;;;;;;;6.25;99.66;102399.75;5066090;28;20033;-77
2022/11/30 09:35:20;;;;;;;22.02;12.65;;;;;;;6.27;99.47;102392.91;5070033;28;20032;-77
2022/11/30 09:37:45;;;;;;;23.55;12.75;;;;;;;6.31;99.67;102389.53;5070565;28;20086;-77
2022/11/30 09:40:12;;;;;;;21.30;12.10;;;;;;;6.37;99.92;102399.13;5067647;28;20392;-77
2022/11/30 09:42:48;;;;;;;22.25;12.55;;;;;;;6.40;99.23;102396.59;5070392;28;20024;-77
2022/11/30 09:45:21;;;;;;;22.20;12.02;;;;;;;6.44;99.38;102395.81;5072681;28;20468;-77
2022/11/30 09:47:56;;;;;;;22.23;12.27;;;;;;;6.50;99.46;102395.03;5078277;28;20055;-77
2022/11/30 09:50:25;;;;;;;20.92;11.70;;;;;;;6.54;99.58;102391.66;5074230;28;20360;-77
2022/11/30 09:52:57;;;;;;;21.60;11.65;;;;;;;6.58;99.24;102383.06;5074198;28;20100;-77
2022/11/30 09:55:30;;;;;;;19.17;11.23;;;;;;;6.62;98.99;102400.38;5072175;28;20043;-77
2022/11/30 09:57:59;;;;;;;21.00;11.85;;;;;;;6.66;99.00;102385.81;5070736;28;20036;-77
2022/11/30 10:00:24;;;;;;;23.85;12.23;;;;;;;6.67;98.93;102385.81;5073679;28;20047;-77
2022/11/30 10:02:52;;;;;;;23.55;12.73;;;;;;;6.70;98.79;102384.13;5070915;28;20538;-77
2022/11/30 10:05:28;;;;;;;20.33;11.27;;;;;;;6.72;98.91;102390.19;5062244;28;20035;-77
2022/11/30 10:08:24;;;;;;;20.88;11.60;;;;;;;6.75;98.84;102385.94;5072046;28;20493;-77
2022/11/30 10:11:09;;;;;;;21.63;12.23;;;;;;;6.72;98.40;102383.28;5073105;28;20055;-77
2022/11/30 10:13:57;;;;;;;22.50;12.25;;;;;;;6.72;98.14;102377.28;5069809;28;20036;-77
2022/11/30 10:16:35;;;;;;;19.65;11.55;;;;;;;6.74;97.90;102378.16;5042580;28;20068;-77
2022/11/30 10:19:15;;;;;;;22.55;12.02;;;;;;;6.75;98.16;102379.88;5071505;28;20049;-77
2022/11/30 10:21:56;;;;;;;20.60;11.57;;;;;;;6.78;98.34;102382.50;5071202;28;20036;-77
2022/11/30 10:24:40;;;;;;;21.50;11.85;;;;;;;6.80;98.08;102378.25;5068696;28;20375;-77
2022/11/30 10:27:16;;;;;;;21.27;11.93;;;;;;;6.80;98.00;102384.28;5066706;28;20042;-77
2022/11/30 10:29:42;;;;;;;20.98;12.18;;;;;;;6.83;98.38;102383.47;5072541;28;20063;-77
2022/11/30 10:32:18;;;;;;;21.38;11.68;;;;;;;6.84;98.26;102380.88;5072884;28;20024;-77
2022/11/30 10:34:47;;;;;;;23.92;12.70;;;;;;;6.82;97.81;102380.03;5053375;28;20025;-77
2022/11/30 10:37:31;;;;;;;25.63;12.95;;;;;;;6.84;98.08;102380.88;5067871;28;20028;-77
2022/11/30 10:40:12;;;;;;;22.42;12.05;;;;;;;6.83;98.11;102383.47;5073467;28;20035;-77
2022/11/30 10:42:57;;;;;;;21.90;11.95;;;;;;;6.82;98.03;102382.59;5071035;28;20117;-77
2022/11/30 10:45:24;;;;;;;23.98;13.00;;;;;;;6.77;97.61;102381.66;5069864;28;20115;-77
2022/11/30 10:48:07;;;;;;;25.25;12.52;;;;;;;6.71;97.85;102378.97;5072585;28;20112;-77
2022/11/30 10:50:33;;;;;;;22.25;12.25;;;;;;;6.67;97.65;102377.19;5073065;28;20036;-77
2022/11/30 10:52:59;;;;;;;22.85;13.30;;;;;;;6.62;97.52;102384.88;5073780;28;20024;-77
2022/11/30 10:55:28;;;;;;;25.38;13.50;;;;;;;6.61;97.46;102372.78;5069882;28;20025;-77
2022/11/30 10:58:19;;;;;;;25.27;13.43;;;;;;;6.63;97.58;102376.25;5072415;28;20155;-77
2022/11/30 11:00:54;;;;;;;25.67;13.18;;;;;;;6.66;97.92;102371.16;5072060;28;20035;-77
2022/11/30 11:03:24;;;;;;;25.13;13.40;;;;;;;6.67;97.62;102364.25;5068753;28;20024;-77
2022/11/30 11:06:03;;;;;;;26.00;13.65;;;;;;;6.66;97.31;102365.13;5070590;28;20032;-77
2022/11/30 11:08:29;;;;;;;26.80;13.55;;;;;;;6.67;97.51;102372.88;5070874;28;20107;-77
2022/11/30 11:10:54;;;;;;;27.55;14.65;;;;;;;6.68;97.34;102368.56;5070953;28;20103;-77
2022/11/30 11:13:40;;;;;;;27.88;13.43;;;;;;;6.71;97.35;102368.63;5062303;28;20140;-77
2022/11/30 11:16:09;;;;;;;29.30;14.85;;;;;;;6.73;97.27;102366.06;5071638;28;20135;-77
2022/11/30 11:18:36;;;;;;;27.15;14.70;;;;;;;6.74;97.05;102357.47;5071115;28;20040;-77
2022/11/30 11:21:15;;;;;;;29.85;15.10;;;;;;;6.81;96.99;102365.34;5069603;28;20117;-77
2022/11/30 11:23:41;;;;;;;32.03;15.38;;;;;;;6.88;96.50;102360.25;5070251;28;20024;-77
2022/11/30 11:26:18;;;;;;;26.67;14.30;;;;;;;6.86;96.74;102362.81;5071426;28;20024;-77
2022/11/30 11:28:48;;;;;;;25.95;13.82;;;;;;;6.80;95.72;102365.31;5069254;28;20096;-77